Latest Weather Observations for Legendre Island

IDW60801

Issued at 12:35 pm WST Wednesday 16 April 2014 (issued every 30 minutes, with the page automatically refreshed every 10 minutes)

About weather observations | Map of weather stations | Latest weather observations for WA | Other Formats
Station Details ID: 004095 Name: LEGENDRE ISLAND Lat: -20.36 Lon: 116.84 Height: 29.0 m
Data from the previous 72 hours. | See also: Recent months for locations in Western Australia
Date/Time
WST
Temp
°C
App
Temp
°C
Dew
Point
Rel
Hum
%
Delta-T
°C
Wind Press
QNH
hPa
Press
MSL
hPa
Rain
since 9 am
mm
Dir
 
Spd
km/h
Gust
km/h
Spd
kts
Gust
kts
16/12:30pm 31.3 26.8 14.9 37 10.1 ENE 32 35 17 19 1013.4 - -
16/12:00pm 31.1 27.9 16.3 41 9.3 ENE 28 32 15 17 1013.9 1013.8 -
16/11:30am 31.2 28.8 18.2 46 8.4 E 28 32 15 17 1014.5 - -
16/11:00am 30.9 28.4 16.1 41 9.2 E 24 32 13 17 1014.7 1014.6 -
16/10:30am 30.6 27.7 16.2 41 9.0 E 26 32 14 17 1015.0 - -
16/10:00am 30.3 27.7 16.0 42 8.9 E 24 28 13 15 1015.1 1015.0 -
16/09:30am 29.7 27.3 16.5 45 8.3 ESE 24 28 13 15 1015.1 - -
16/09:00am 29.1 26.8 16.6 46 7.8 ESE 24 28 13 15 1015.2 1015.1 -
16/08:30am 28.4 26.2 17.0 50 7.2 ESE 24 28 13 15 1015.1 - -
16/08:00am 27.8 26.3 17.6 53 6.4 ESE 22 28 12 15 1014.9 1014.8 -
16/07:30am 26.4 25.8 18.5 62 5.0 SE 19 26 10 14 1014.8 - -
16/07:00am 24.8 24.4 18.0 66 4.3 SE 17 19 9 10 1014.7 1014.6 -
16/06:30am 23.9 23.2 18.3 71 3.5 SSE 19 20 10 11 1014.5 - -
16/06:00am 24.1 22.9 18.5 71 3.5 SSE 22 26 12 14 1014.2 1014.1 -
16/05:30am 24.0 23.9 19.5 76 2.9 S 19 20 10 11 1014.1 - -
16/05:00am 23.6 23.7 19.9 80 2.4 S 19 20 10 11 1014.0 1013.9 -
16/04:30am 23.5 24.2 20.4 83 2.0 S 17 19 9 10 1014.0 - -
16/04:00am 23.8 24.4 20.3 81 2.3 S 17 19 9 10 1014.0 1013.9 -
16/03:30am 23.7 24.5 19.8 79 2.5 S 15 17 8 9 1014.1 - -
16/03:00am 24.1 26.0 20.6 81 2.3 S 11 13 6 7 1014.2 1014.1 -
16/02:30am 24.2 25.9 20.9 82 2.2 S 13 15 7 8 1014.4 - -
16/02:00am 24.4 26.2 21.1 82 2.2 S 13 13 7 7 1014.7 1014.6 -
16/01:30am 24.8 26.9 21.7 83 2.1 S 13 15 7 8 1014.8 - -
16/01:00am 24.9 26.7 21.8 83 2.1 S 15 15 8 8 1014.9 1014.8 -
16/12:30am 24.8 26.6 21.9 84 1.9 S 15 15 8 8 1015.0 - -
16/12:00am 24.9 27.6 22.2 85 1.8 S 11 13 6 7 1015.1 1015.0 -
 
Date/Time
WST
Temp
°C
App
Temp
°C
Dew
Point
Rel
Hum
%
Delta-T
°C
Wind Press
QNH
hPa
Press
MSL
hPa
Rain
since 9 am
mm
Dir
 
Spd
km/h
Gust
km/h
Spd
kts
Gust
kts
15/11:30pm 24.9 26.8 21.4 81 2.3 S 13 15 7 8 1015.2 - -
15/11:00pm 25.4 28.1 21.3 78 2.7 S 9 9 5 5 1015.2 1015.1 -
15/10:30pm 26.8 30.2 19.4 64 4.8 CALM 0 4 0 2 1015.5 - -
15/10:00pm 27.6 29.8 19.7 62 5.1 N 7 7 4 4 1015.2 1015.1 -
15/09:30pm 27.4 29.8 20.0 64 4.8 N 7 7 4 4 1015.2 - -
15/09:00pm 27.8 29.2 19.6 61 5.3 N 11 13 6 7 1014.9 1014.8 -
15/08:30pm 28.0 29.2 19.8 61 5.4 N 13 15 7 8 1014.8 - -
15/08:00pm 28.1 28.6 19.3 58 5.7 N 15 17 8 9 1014.5 1014.4 -
15/07:30pm 28.1 28.6 19.3 58 5.7 N 15 19 8 10 1014.1 - -
15/07:00pm 28.1 27.7 19.3 58 5.7 N 20 22 11 12 1013.6 1013.5 -
15/06:30pm 28.3 27.4 19.0 57 6.0 N 22 24 12 13 1013.4 - -
15/06:00pm 28.3 27.5 19.2 57 5.9 N 22 24 12 13 1013.1 1013.0 -
15/05:30pm 28.7 28.1 18.8 55 6.4 N 20 24 11 13 1012.9 - -
15/05:00pm 29.0 27.9 18.7 53 6.6 NNE 22 24 12 13 1012.8 1012.7 -
15/04:30pm 29.6 28.5 17.8 49 7.5 NNE 20 24 11 13 1012.6 - -
15/04:00pm 30.0 28.0 17.5 47 7.9 NNE 24 26 13 14 1012.6 1012.5 -
15/03:30pm 30.1 27.6 17.2 46 8.2 NNE 26 30 14 16 1012.7 - -
15/03:00pm 30.3 27.8 17.0 44 8.4 NE 26 30 14 16 1012.7 1012.6 -
15/02:30pm 30.5 28.1 18.2 47 7.9 NE 28 30 15 16 1012.8 - -
15/02:00pm 30.4 27.4 17.8 46 8.1 NE 30 35 16 19 1013.0 1012.9 -
15/01:30pm 30.4 27.3 17.5 46 8.2 NE 30 35 16 19 1013.4 - -
15/01:00pm 30.6 27.0 17.3 45 8.4 ENE 32 35 17 19 1013.8 1013.7 -
15/12:30pm 30.3 26.1 16.3 42 8.7 ENE 33 41 18 22 1014.2 - -
15/12:00pm 30.4 26.5 17.8 46 8.0 E 35 41 19 22 1014.6 1014.5 -
15/11:30am 30.3 25.7 17.0 44 8.4 ENE 37 43 20 23 1014.9 - -
15/11:00am 30.1 26.2 16.9 45 8.3 E 33 39 18 21 1015.3 1015.2 -
15/10:30am 30.1 25.0 15.8 42 8.9 E 37 43 20 23 1015.6 - -
15/10:00am 29.9 24.2 15.2 41 9.0 E 39 44 21 24 1015.8 1015.6 -
15/09:30am 29.7 24.7 15.0 40 9.0 E 35 41 19 22 1015.7 - -
15/09:00am 29.6 25.1 16.4 45 8.2 E 35 43 19 23 1015.6 1015.4 -
15/08:30am 29.1 25.3 16.6 46 7.8 ESE 32 37 17 20 1015.5 - -
15/08:00am 28.5 25.1 16.7 48 7.4 ESE 30 35 16 19 1015.5 1015.3 -
15/07:30am 27.2 25.1 16.2 51 6.8 SE 22 28 12 15 1015.1 - -
15/07:00am 26.3 24.3 15.4 51 6.6 ESE 20 26 11 14 1014.7 1014.6 -
15/06:30am 25.4 23.8 16.5 58 5.5 ESE 20 24 11 13 1014.5 - -
15/06:00am 25.6 24.3 16.7 58 5.5 SE 19 24 10 13 1014.4 1014.3 -
15/05:30am 25.7 24.4 16.8 58 5.5 SE 19 22 10 12 1014.2 - -
15/05:00am 25.5 24.4 17.2 60 5.2 SE 19 24 10 13 1014.1 1014.0 -
15/04:30am 25.6 25.0 18.5 65 4.5 SSE 19 22 10 12 1014.0 - -
15/04:00am 24.9 24.7 19.3 71 3.6 SSE 19 22 10 12 1013.9 1013.8 -
15/03:30am 25.1 25.2 19.2 70 3.8 SSE 17 19 9 10 1013.8 - -
15/03:00am 24.4 24.5 19.2 73 3.3 S 17 19 9 10 1013.9 1013.8 -
15/02:30am 24.3 24.5 19.4 74 3.1 S 17 17 9 9 1014.0 - -
15/02:00am 24.9 27.6 20.6 77 2.8 S 7 9 4 5 1014.2 1014.1 -
15/01:30am 24.8 26.9 20.9 79 2.6 S 11 13 6 7 1014.3 - -
15/01:00am 25.1 26.5 21.0 78 2.7 S 15 20 8 11 1014.2 1014.1 -
15/12:30am 25.2 26.4 21.5 80 2.5 S 17 19 9 10 1014.3 - -
15/12:00am 25.6 26.8 21.5 78 2.7 S 17 17 9 9 1014.2 1014.1 -
 
Date/Time
WST
Temp
°C
App
Temp
°C
Dew
Point
Rel
Hum
%
Delta-T
°C
Wind Press
QNH
hPa
Press
MSL
hPa
Rain
since 9 am
mm
Dir
 
Spd
km/h
Gust
km/h
Spd
kts
Gust
kts
14/11:30pm 25.4 27.1 21.7 80 2.5 S 15 17 8 9 1014.4 - -
14/11:00pm 25.5 27.5 21.6 79 2.6 S 13 15 7 8 1014.5 1014.4 -
14/10:30pm 25.1 27.1 21.6 81 2.3 S 13 15 7 8 1014.4 - -
14/10:00pm 25.7 28.4 21.4 77 2.9 S 9 11 5 6 1014.3 1014.2 -
14/09:30pm 26.5 30.0 20.3 68 4.1 W 2 4 1 2 1014.1 - -
14/09:00pm 27.9 30.4 21.0 66 4.6 N 9 11 5 6 1013.8 1013.7 -
14/08:30pm 28.1 29.9 20.4 63 5.1 N 11 13 6 7 1013.7 - -
14/08:00pm 28.3 28.9 20.3 62 5.3 N 17 19 9 10 1013.3 1013.2 -
14/07:30pm 28.4 29.2 19.9 60 5.6 N 15 17 8 9 1012.9 - -
14/07:00pm 28.4 28.8 19.9 60 5.6 N 17 19 9 10 1012.6 1012.5 -
14/06:30pm 28.6 28.6 19.8 59 5.8 N 19 20 10 11 1012.3 - -
14/06:00pm 28.7 28.6 19.9 59 5.8 N 20 22 11 12 1012.1 1011.9 -
14/05:30pm 29.3 29.1 19.3 55 6.5 N 19 22 10 12 1011.8 - -
14/05:00pm 29.6 28.8 19.3 54 6.7 N 22 24 12 13 1011.7 1011.5 -
14/04:30pm 29.8 28.7 18.6 51 7.2 NNE 22 28 12 15 1011.6 - -
14/04:00pm 30.5 28.8 18.2 47 7.9 NNE 24 28 13 15 1011.5 1011.3 -
14/03:30pm 30.9 29.7 18.3 47 8.1 NNE 22 26 12 14 1011.7 - -
14/03:00pm 31.3 29.3 18.3 46 8.4 NE 26 28 14 15 1011.8 1011.6 -
14/02:30pm 31.5 29.7 17.8 44 8.8 NE 24 30 13 16 1011.9 - -
14/02:00pm 31.4 29.4 18.4 46 8.4 NE 26 30 14 16 1012.3 1012.1 -
14/01:30pm 31.6 28.7 17.9 44 8.8 ENE 30 33 16 18 1012.6 - -
14/01:00pm 31.7 28.3 16.8 40 9.4 ENE 30 33 16 18 1012.9 1012.8 -
14/12:30pm 31.4 29.1 17.7 44 8.8 E 26 30 14 16 1013.4 - -
14/12:00pm 31.4 27.9 16.6 41 9.3 E 30 33 16 18 1013.8 1013.7 -
14/11:30am 31.0 27.4 16.2 41 9.3 E 30 37 16 20 1014.2 - -
14/11:00am 30.8 26.8 16.8 43 8.8 E 33 37 18 20 1014.5 1014.4 -
14/10:30am 30.7 26.4 15.9 40 9.2 E 33 41 18 22 1014.4 - -
14/10:00am 30.3 26.4 17.0 44 8.4 E 33 41 18 22 1014.5 1014.4 -
14/09:30am 29.7 24.4 15.4 42 8.8 E 37 41 20 22 1014.4 - -
14/09:00am 29.6 23.5 12.9 35 9.9 ESE 37 46 20 25 1014.4 1014.3 -
14/08:30am 29.4 23.9 13.6 38 9.4 ESE 35 44 19 24 1014.4 - -
14/08:00am 29.2 24.7 15.3 42 8.5 ESE 33 41 18 22 1014.1 1014.0 -
14/07:30am 28.6 24.2 15.2 44 8.2 ESE 32 37 17 20 1014.0 - -
14/07:00am 26.8 23.2 13.2 43 8.0 ESE 24 30 13 16 1013.9 1013.8 -
14/06:30am 26.0 23.3 15.7 53 6.3 SE 24 30 13 16 1013.6 - -
14/06:00am 26.3 24.6 16.3 54 6.2 ESE 20 24 11 13 1013.2 1013.1 -
14/05:30am 26.6 24.8 15.9 51 6.6 ESE 20 22 11 12 1012.8 - -
14/05:00am 24.9 24.3 18.4 67 4.1 SE 19 20 10 11 1012.5 1012.4 -
14/04:30am 25.5 26.5 19.4 69 3.9 SSE 13 15 7 8 1012.6 - -
14/04:00am 25.1 27.0 19.7 72 3.5 S 9 11 5 6 1012.7 1012.6 -
14/03:30am 25.0 27.9 21.7 82 2.2 S 9 13 5 7 1012.8 - -
14/03:00am 24.9 26.8 22.0 84 1.9 S 15 19 8 10 1012.8 1012.7 -
14/02:30am 25.0 27.5 23.2 90 1.2 S 15 15 8 8 1012.9 - -
14/02:00am 25.0 28.0 22.7 87 1.6 S 11 13 6 7 1013.0 1012.9 -
14/01:30am 25.1 28.1 22.6 86 1.7 S 11 11 6 6 1013.0 - -
14/01:00am 25.6 29.9 23.7 89 1.3 S 7 9 4 5 1013.2 1013.1 -
14/12:30am 25.5 29.0 22.8 85 1.8 S 9 9 5 5 1013.3 - -
14/12:00am 26.1 30.5 22.8 82 2.2 SSE 4 4 2 2 1013.4 1013.3 -
 
Date/Time
WST
Temp
°C
App
Temp
°C
Dew
Point
Rel
Hum
%
Delta-T
°C
Wind Press
QNH
hPa
Press
MSL
hPa
Rain
since 9 am
mm
Dir
 
Spd
km/h
Gust
km/h
Spd
kts
Gust
kts
13/11:30pm 26.0 30.1 23.3 85 1.8 S 7 7 4 4 1013.4 - -
13/11:00pm 25.9 29.2 22.6 82 2.2 SSW 9 11 5 6 1013.6 1013.5 -
13/10:30pm 26.0 28.8 22.3 80 2.5 SSW 11 13 6 7 1013.5 - -
13/10:00pm 26.1 28.5 22.2 79 2.6 SW 13 13 7 7 1013.4 1013.3 -
13/09:30pm 26.1 28.4 22.0 78 2.7 SW 13 13 7 7 1013.3 - -
13/09:00pm 26.3 28.5 21.1 73 3.4 WSW 11 11 6 6 1013.1 1013.0 -
13/08:30pm 27.3 30.3 21.3 69 4.0 W 7 9 4 5 1012.8 - -
13/08:00pm 27.5 30.0 21.1 68 4.2 NW 9 11 5 6 1012.4 1012.2 -
13/07:30pm 28.3 30.5 21.1 65 4.8 NNW 11 13 6 7 1012.0 - -
13/07:00pm 28.7 30.8 21.0 63 5.1 N 11 15 6 8 1011.7 1011.5 -
13/06:30pm 28.8 30.1 20.8 62 5.3 N 15 17 8 9 1011.3 - -
13/06:00pm 29.0 30.2 20.7 61 5.5 N 15 17 8 9 1011.0 1010.8 -
13/05:30pm 29.6 29.5 19.6 55 6.5 N 19 20 10 11 1010.7 - -
13/05:00pm 30.2 30.1 19.6 53 6.9 N 19 22 10 12 1010.5 1010.3 -
13/04:30pm 30.8 30.9 19.2 50 7.6 N 17 19 9 10 1010.4 - -
13/04:00pm 31.1 31.4 18.8 48 8.0 N 15 17 8 9 1010.5 1010.3 -
13/03:30pm 31.4 31.7 18.0 44 8.6 N 13 15 7 8 1010.6 - -
13/03:00pm 31.8 32.3 18.4 45 8.7 N 13 15 7 8 1010.8 1010.6 -
13/02:30pm 32.5 32.4 17.9 41 9.4 NNE 15 15 8 8 1011.1 - -
13/02:00pm 32.5 32.8 17.9 41 9.4 NE 13 15 7 8 1011.4 1011.2 -
13/01:30pm 32.3 31.8 17.0 40 9.7 ENE 15 17 8 9 1011.8 - -
13/01:00pm 32.4 32.5 17.5 41 9.5 E 13 15 7 8 1012.3 1012.1 -

Other Formats:

Comma delimited format used in spreadsheet applications
http://www.bom.gov.au/fwo/IDW60801/IDW60801.94307.axf

JavaScript Object Notation format (JSON) in row-major order
http://www.bom.gov.au/fwo/IDW60801/IDW60801.94307.json